sensor_id;sensor_type;location;lat;lon;timestamp;P1;durP1;ratioP1;P2;durP2;ratioP2
4754;SDS011;2391;47.212;7.542;2022-08-19T00:01:32;11.57;;;10.37;;
4754;SDS011;2391;47.212;7.542;2022-08-19T00:04:01;13.60;;;11.13;;
4754;SDS011;2391;47.212;7.542;2022-08-19T00:06:29;13.47;;;10.73;;
4754;SDS011;2391;47.212;7.542;2022-08-19T00:08:55;11.93;;;9.83;;
4754;SDS011;2391;47.212;7.542;2022-08-19T00:11:22;14.77;;;11.40;;
4754;SDS011;2391;47.212;7.542;2022-08-19T00:13:49;14.20;;;11.40;;
4754;SDS011;2391;47.212;7.542;2022-08-19T00:16:16;14.90;;;11.00;;
4754;SDS011;2391;47.212;7.542;2022-08-19T00:18:44;14.97;;;10.73;;
4754;SDS011;2391;47.212;7.542;2022-08-19T00:21:10;12.40;;;10.60;;
4754;SDS011;2391;47.212;7.542;2022-08-19T00:23:36;11.50;;;10.30;;
4754;SDS011;2391;47.212;7.542;2022-08-19T00:26:06;15.67;;;11.73;;
4754;SDS011;2391;47.212;7.542;2022-08-19T00:28:30;13.20;;;11.50;;
4754;SDS011;2391;47.212;7.542;2022-08-19T00:30:57;14.53;;;11.13;;
4754;SDS011;2391;47.212;7.542;2022-08-19T00:33:23;10.90;;;9.90;;
4754;SDS011;2391;47.212;7.542;2022-08-19T00:35:48;12.10;;;10.43;;
4754;SDS011;2391;47.212;7.542;2022-08-19T00:38:14;12.60;;;11.30;;
4754;SDS011;2391;47.212;7.542;2022-08-19T00:40:42;17.53;;;12.37;;
4754;SDS011;2391;47.212;7.542;2022-08-19T00:43:10;13.93;;;12.37;;
4754;SDS011;2391;47.212;7.542;2022-08-19T00:45:38;16.27;;;10.37;;
4754;SDS011;2391;47.212;7.542;2022-08-19T00:48:09;15.00;;;11.27;;
4754;SDS011;2391;47.212;7.542;2022-08-19T00:50:36;16.00;;;12.60;;
4754;SDS011;2391;47.212;7.542;2022-08-19T00:53:05;15.20;;;12.90;;
4754;SDS011;2391;47.212;7.542;2022-08-19T00:55:32;13.13;;;11.60;;
4754;SDS011;2391;47.212;7.542;2022-08-19T00:58:02;15.80;;;11.43;;
4754;SDS011;2391;47.212;7.542;2022-08-19T01:00:32;13.20;;;11.13;;
4754;SDS011;2391;47.212;7.542;2022-08-19T01:03:01;13.53;;;11.50;;
4754;SDS011;2391;47.212;7.542;2022-08-19T01:05:27;12.63;;;10.87;;
4754;SDS011;2391;47.212;7.542;2022-08-19T01:07:54;11.07;;;9.97;;
4754;SDS011;2391;47.212;7.542;2022-08-19T01:10:26;11.83;;;10.63;;
4754;SDS011;2391;47.212;7.542;2022-08-19T01:12:53;13.73;;;10.60;;
4754;SDS011;2391;47.212;7.542;2022-08-19T01:15:42;15.17;;;11.27;;
4754;SDS011;2391;47.212;7.542;2022-08-19T01:18:01;11.93;;;10.70;;
4754;SDS011;2391;47.212;7.542;2022-08-19T01:20:30;12.37;;;10.77;;
4754;SDS011;2391;47.212;7.542;2022-08-19T01:22:57;18.10;;;12.20;;
4754;SDS011;2391;47.212;7.542;2022-08-19T01:25:28;14.27;;;12.87;;
4754;SDS011;2391;47.212;7.542;2022-08-19T01:28:02;12.53;;;11.20;;
4754;SDS011;2391;47.212;7.542;2022-08-19T01:30:29;13.90;;;11.90;;
4754;SDS011;2391;47.212;7.542;2022-08-19T01:32:57;14.00;;;12.57;;
4754;SDS011;2391;47.212;7.542;2022-08-19T01:35:26;14.73;;;12.80;;
4754;SDS011;2391;47.212;7.542;2022-08-19T01:37:59;21.13;;;13.80;;
4754;SDS011;2391;47.212;7.542;2022-08-19T01:40:24;14.13;;;12.63;;
4754;SDS011;2391;47.212;7.542;2022-08-19T01:42:53;20.13;;;12.77;;
4754;SDS011;2391;47.212;7.542;2022-08-19T01:45:20;16.77;;;12.87;;
4754;SDS011;2391;47.212;7.542;2022-08-19T01:47:48;11.27;;;10.10;;
4754;SDS011;2391;47.212;7.542;2022-08-19T01:50:14;12.30;;;11.10;;
4754;SDS011;2391;47.212;7.542;2022-08-19T01:52:41;13.60;;;12.00;;
4754;SDS011;2391;47.212;7.542;2022-08-19T01:55:08;14.90;;;11.87;;
4754;SDS011;2391;47.212;7.542;2022-08-19T01:57:37;13.97;;;11.70;;
4754;SDS011;2391;47.212;7.542;2022-08-19T02:00:05;17.97;;;12.50;;
4754;SDS011;2391;47.212;7.542;2022-08-19T02:02:34;19.13;;;12.73;;
4754;SDS011;2391;47.212;7.542;2022-08-19T02:04:59;15.03;;;12.40;;
4754;SDS011;2391;47.212;7.542;2022-08-19T02:07:25;16.87;;;11.83;;
4754;SDS011;2391;47.212;7.542;2022-08-19T02:09:52;16.50;;;12.93;;
4754;SDS011;2391;47.212;7.542;2022-08-19T02:12:18;15.57;;;13.10;;
4754;SDS011;2391;47.212;7.542;2022-08-19T02:14:44;15.87;;;12.87;;
4754;SDS011;2391;47.212;7.542;2022-08-19T02:17:09;15.10;;;12.27;;
4754;SDS011;2391;47.212;7.542;2022-08-19T02:19:35;16.37;;;12.23;;
4754;SDS011;2391;47.212;7.542;2022-08-19T02:22:01;17.30;;;13.03;;
4754;SDS011;2391;47.212;7.542;2022-08-19T02:24:27;16.13;;;13.60;;
4754;SDS011;2391;47.212;7.542;2022-08-19T02:26:53;14.00;;;12.50;;
4754;SDS011;2391;47.212;7.542;2022-08-19T02:29:19;17.07;;;12.53;;
4754;SDS011;2391;47.212;7.542;2022-08-19T02:31:46;14.10;;;12.10;;
4754;SDS011;2391;47.212;7.542;2022-08-19T02:34:12;14.23;;;12.17;;
4754;SDS011;2391;47.212;7.542;2022-08-19T02:36:38;14.93;;;13.33;;
4754;SDS011;2391;47.212;7.542;2022-08-19T02:39:04;13.77;;;11.87;;
4754;SDS011;2391;47.212;7.542;2022-08-19T02:41:30;17.67;;;13.40;;
4754;SDS011;2391;47.212;7.542;2022-08-19T02:43:59;15.37;;;13.50;;
4754;SDS011;2391;47.212;7.542;2022-08-19T02:46:27;16.80;;;13.53;;
4754;SDS011;2391;47.212;7.542;2022-08-19T02:48:56;26.03;;;14.00;;
4754;SDS011;2391;47.212;7.542;2022-08-19T02:51:25;20.47;;;14.03;;
4754;SDS011;2391;47.212;7.542;2022-08-19T02:53:53;13.93;;;12.50;;
4754;SDS011;2391;47.212;7.542;2022-08-19T02:56:19;16.93;;;14.53;;
4754;SDS011;2391;47.212;7.542;2022-08-19T02:58:45;14.07;;;12.57;;
4754;SDS011;2391;47.212;7.542;2022-08-19T03:01:23;16.30;;;13.10;;
4754;SDS011;2391;47.212;7.542;2022-08-19T03:03:52;15.93;;;12.77;;
4754;SDS011;2391;47.212;7.542;2022-08-19T03:06:19;16.40;;;13.97;;
4754;SDS011;2391;47.212;7.542;2022-08-19T03:08:46;18.57;;;15.33;;
4754;SDS011;2391;47.212;7.542;2022-08-19T03:11:13;17.30;;;13.37;;
4754;SDS011;2391;47.212;7.542;2022-08-19T03:13:40;15.93;;;13.70;;
4754;SDS011;2391;47.212;7.542;2022-08-19T03:16:06;15.67;;;13.23;;
4754;SDS011;2391;47.212;7.542;2022-08-19T03:18:32;16.90;;;14.00;;
4754;SDS011;2391;47.212;7.542;2022-08-19T03:20:58;18.20;;;13.97;;
4754;SDS011;2391;47.212;7.542;2022-08-19T03:23:23;14.67;;;13.07;;
4754;SDS011;2391;47.212;7.542;2022-08-19T03:25:50;14.30;;;12.87;;
4754;SDS011;2391;47.212;7.542;2022-08-19T03:28:17;17.70;;;14.50;;
4754;SDS011;2391;47.212;7.542;2022-08-19T03:30:44;17.07;;;14.37;;
4754;SDS011;2391;47.212;7.542;2022-08-19T03:33:22;17.30;;;14.77;;
4754;SDS011;2391;47.212;7.542;2022-08-19T03:35:59;20.90;;;14.23;;
4754;SDS011;2391;47.212;7.542;2022-08-19T03:38:26;16.83;;;13.77;;
4754;SDS011;2391;47.212;7.542;2022-08-19T03:40:52;19.63;;;14.60;;
4754;SDS011;2391;47.212;7.542;2022-08-19T03:43:18;21.03;;;15.80;;
4754;SDS011;2391;47.212;7.542;2022-08-19T03:45:44;20.63;;;15.23;;
4754;SDS011;2391;47.212;7.542;2022-08-19T03:48:10;18.47;;;14.60;;
4754;SDS011;2391;47.212;7.542;2022-08-19T03:50:39;18.17;;;14.27;;
4754;SDS011;2391;47.212;7.542;2022-08-19T03:53:06;16.47;;;13.60;;
4754;SDS011;2391;47.212;7.542;2022-08-19T03:55:34;18.33;;;15.13;;
4754;SDS011;2391;47.212;7.542;2022-08-19T03:58:01;14.63;;;13.03;;
4754;SDS011;2391;47.212;7.542;2022-08-19T04:00:27;16.80;;;13.60;;
4754;SDS011;2391;47.212;7.542;2022-08-19T04:02:53;15.70;;;13.70;;
4754;SDS011;2391;47.212;7.542;2022-08-19T04:05:19;16.17;;;13.13;;
4754;SDS011;2391;47.212;7.542;2022-08-19T04:07:45;18.87;;;13.53;;
4754;SDS011;2391;47.212;7.542;2022-08-19T04:10:11;14.23;;;12.40;;
4754;SDS011;2391;47.212;7.542;2022-08-19T04:12:37;14.27;;;12.80;;
4754;SDS011;2391;47.212;7.542;2022-08-19T04:15:04;13.37;;;11.80;;
4754;SDS011;2391;47.212;7.542;2022-08-19T04:17:31;13.73;;;12.13;;
4754;SDS011;2391;47.212;7.542;2022-08-19T04:19:57;17.10;;;12.87;;
4754;SDS011;2391;47.212;7.542;2022-08-19T04:22:23;14.53;;;12.30;;
4754;SDS011;2391;47.212;7.542;2022-08-19T04:24:49;14.67;;;11.60;;
4754;SDS011;2391;47.212;7.542;2022-08-19T04:27:15;12.00;;;10.80;;
4754;SDS011;2391;47.212;7.542;2022-08-19T04:29:41;13.67;;;11.13;;
4754;SDS011;2391;47.212;7.542;2022-08-19T04:32:07;11.90;;;9.80;;
4754;SDS011;2391;47.212;7.542;2022-08-19T04:34:34;12.47;;;9.60;;
4754;SDS011;2391;47.212;7.542;2022-08-19T04:37:00;12.17;;;10.33;;
4754;SDS011;2391;47.212;7.542;2022-08-19T04:39:27;14.40;;;10.37;;
4754;SDS011;2391;47.212;7.542;2022-08-19T04:42:13;10.03;;;9.00;;
4754;SDS011;2391;47.212;7.542;2022-08-19T04:44:58;13.00;;;9.07;;
4754;SDS011;2391;47.212;7.542;2022-08-19T04:47:24;11.03;;;9.60;;
4754;SDS011;2391;47.212;7.542;2022-08-19T04:49:50;8.97;;;8.03;;
4754;SDS011;2391;47.212;7.542;2022-08-19T04:52:16;8.43;;;7.50;;
4754;SDS011;2391;47.212;7.542;2022-08-19T04:54:42;8.57;;;6.83;;
4754;SDS011;2391;47.212;7.542;2022-08-19T04:57:08;10.47;;;7.80;;
4754;SDS011;2391;47.212;7.542;2022-08-19T04:59:35;8.73;;;7.83;;
4754;SDS011;2391;47.212;7.542;2022-08-19T05:02:02;9.67;;;7.57;;
4754;SDS011;2391;47.212;7.542;2022-08-19T05:04:29;10.03;;;8.60;;
4754;SDS011;2391;47.212;7.542;2022-08-19T05:06:58;7.83;;;7.13;;
4754;SDS011;2391;47.212;7.542;2022-08-19T05:09:24;8.67;;;7.17;;
4754;SDS011;2391;47.212;7.542;2022-08-19T05:11:50;11.30;;;7.57;;
4754;SDS011;2391;47.212;7.542;2022-08-19T05:14:17;8.80;;;7.70;;
4754;SDS011;2391;47.212;7.542;2022-08-19T05:16:45;7.17;;;6.47;;
4754;SDS011;2391;47.212;7.542;2022-08-19T05:19:10;8.17;;;7.37;;
4754;SDS011;2391;47.212;7.542;2022-08-19T05:21:55;7.10;;;6.50;;
4754;SDS011;2391;47.212;7.542;2022-08-19T05:24:39;8.27;;;7.40;;
4754;SDS011;2391;47.212;7.542;2022-08-19T05:27:05;11.20;;;7.90;;
4754;SDS011;2391;47.212;7.542;2022-08-19T05:29:31;7.37;;;6.63;;
4754;SDS011;2391;47.212;7.542;2022-08-19T05:31:59;7.87;;;7.20;;
4754;SDS011;2391;47.212;7.542;2022-08-19T05:34:26;7.00;;;6.40;;
4754;SDS011;2391;47.212;7.542;2022-08-19T05:36:56;7.40;;;6.37;;
4754;SDS011;2391;47.212;7.542;2022-08-19T05:39:24;7.03;;;6.20;;
4754;SDS011;2391;47.212;7.542;2022-08-19T05:41:53;7.00;;;6.03;;
4754;SDS011;2391;47.212;7.542;2022-08-19T05:44:27;7.50;;;6.73;;
4754;SDS011;2391;47.212;7.542;2022-08-19T05:46:52;6.30;;;5.70;;
4754;SDS011;2391;47.212;7.542;2022-08-19T05:49:19;6.20;;;5.70;;
4754;SDS011;2391;47.212;7.542;2022-08-19T05:51:48;9.83;;;7.20;;
4754;SDS011;2391;47.212;7.542;2022-08-19T05:54:14;7.50;;;6.80;;
4754;SDS011;2391;47.212;7.542;2022-08-19T05:56:41;7.63;;;6.40;;
4754;SDS011;2391;47.212;7.542;2022-08-19T05:59:08;6.37;;;5.77;;
4754;SDS011;2391;47.212;7.542;2022-08-19T06:01:37;7.33;;;6.50;;
4754;SDS011;2391;47.212;7.542;2022-08-19T06:04:04;7.53;;;5.87;;
4754;SDS011;2391;47.212;7.542;2022-08-19T06:06:31;9.03;;;6.23;;
4754;SDS011;2391;47.212;7.542;2022-08-19T06:09:00;7.53;;;6.83;;
4754;SDS011;2391;47.212;7.542;2022-08-19T06:11:35;14.83;;;6.73;;
4754;SDS011;2391;47.212;7.542;2022-08-19T06:14:15;7.33;;;6.60;;
4754;SDS011;2391;47.212;7.542;2022-08-19T06:16:39;10.60;;;7.47;;
4754;SDS011;2391;47.212;7.542;2022-08-19T06:19:07;6.30;;;5.80;;
4754;SDS011;2391;47.212;7.542;2022-08-19T06:21:36;7.30;;;6.60;;
4754;SDS011;2391;47.212;7.542;2022-08-19T06:24:05;9.63;;;6.87;;
4754;SDS011;2391;47.212;7.542;2022-08-19T06:26:33;7.03;;;6.37;;
4754;SDS011;2391;47.212;7.542;2022-08-19T06:29:00;6.97;;;6.37;;
4754;SDS011;2391;47.212;7.542;2022-08-19T06:31:28;9.20;;;6.67;;
4754;SDS011;2391;47.212;7.542;2022-08-19T06:33:56;7.93;;;7.13;;
4754;SDS011;2391;47.212;7.542;2022-08-19T06:36:26;7.37;;;6.57;;
4754;SDS011;2391;47.212;7.542;2022-08-19T06:38:56;7.43;;;6.63;;
4754;SDS011;2391;47.212;7.542;2022-08-19T06:41:23;10.93;;;6.90;;
4754;SDS011;2391;47.212;7.542;2022-08-19T06:43:51;8.30;;;7.10;;
4754;SDS011;2391;47.212;7.542;2022-08-19T06:46:18;8.73;;;7.17;;
4754;SDS011;2391;47.212;7.542;2022-08-19T06:48:45;7.43;;;6.77;;
4754;SDS011;2391;47.212;7.542;2022-08-19T06:51:13;11.53;;;7.43;;
4754;SDS011;2391;47.212;7.542;2022-08-19T06:53:41;9.63;;;6.90;;
4754;SDS011;2391;47.212;7.542;2022-08-19T06:56:09;13.73;;;7.60;;
4754;SDS011;2391;47.212;7.542;2022-08-19T06:58:35;10.60;;;7.43;;
4754;SDS011;2391;47.212;7.542;2022-08-19T07:01:01;8.40;;;7.10;;
4754;SDS011;2391;47.212;7.542;2022-08-19T07:03:29;9.17;;;7.80;;
4754;SDS011;2391;47.212;7.542;2022-08-19T07:05:56;7.13;;;6.40;;
4754;SDS011;2391;47.212;7.542;2022-08-19T07:08:22;9.10;;;8.00;;
4754;SDS011;2391;47.212;7.542;2022-08-19T07:10:49;10.20;;;7.80;;
4754;SDS011;2391;47.212;7.542;2022-08-19T07:13:15;10.27;;;8.17;;
4754;SDS011;2391;47.212;7.542;2022-08-19T07:15:41;9.13;;;7.80;;
4754;SDS011;2391;47.212;7.542;2022-08-19T07:18:07;8.77;;;7.83;;
4754;SDS011;2391;47.212;7.542;2022-08-19T07:20:32;11.43;;;7.80;;
4754;SDS011;2391;47.212;7.542;2022-08-19T07:22:58;10.13;;;8.90;;
4754;SDS011;2391;47.212;7.542;2022-08-19T07:25:24;8.53;;;7.53;;
4754;SDS011;2391;47.212;7.542;2022-08-19T07:27:50;9.87;;;8.50;;
4754;SDS011;2391;47.212;7.542;2022-08-19T07:30:16;9.10;;;8.20;;
4754;SDS011;2391;47.212;7.542;2022-08-19T07:32:42;8.93;;;8.00;;
4754;SDS011;2391;47.212;7.542;2022-08-19T07:35:08;14.80;;;8.17;;
4754;SDS011;2391;47.212;7.542;2022-08-19T07:37:35;8.07;;;7.27;;
4754;SDS011;2391;47.212;7.542;2022-08-19T07:40:06;8.57;;;7.70;;
4754;SDS011;2391;47.212;7.542;2022-08-19T07:42:33;13.67;;;7.60;;
4754;SDS011;2391;47.212;7.542;2022-08-19T07:44:58;8.70;;;7.83;;
4754;SDS011;2391;47.212;7.542;2022-08-19T07:47:24;9.53;;;7.97;;
4754;SDS011;2391;47.212;7.542;2022-08-19T07:49:50;11.87;;;8.77;;
4754;SDS011;2391;47.212;7.542;2022-08-19T07:52:16;10.13;;;8.50;;
4754;SDS011;2391;47.212;7.542;2022-08-19T07:54:42;10.50;;;9.10;;
4754;SDS011;2391;47.212;7.542;2022-08-19T07:57:08;8.90;;;8.00;;
4754;SDS011;2391;47.212;7.542;2022-08-19T07:59:34;11.17;;;9.60;;
4754;SDS011;2391;47.212;7.542;2022-08-19T08:02:00;9.80;;;8.80;;
4754;SDS011;2391;47.212;7.542;2022-08-19T08:04:28;9.63;;;8.63;;
4754;SDS011;2391;47.212;7.542;2022-08-19T08:07:13;9.50;;;8.60;;
4754;SDS011;2391;47.212;7.542;2022-08-19T08:09:58;8.93;;;8.03;;
4754;SDS011;2391;47.212;7.542;2022-08-19T08:12:31;12.60;;;9.10;;
4754;SDS011;2391;47.212;7.542;2022-08-19T08:14:57;9.47;;;8.17;;
4754;SDS011;2391;47.212;7.542;2022-08-19T08:17:26;10.10;;;8.90;;
4754;SDS011;2391;47.212;7.542;2022-08-19T08:19:55;9.20;;;8.00;;
4754;SDS011;2391;47.212;7.542;2022-08-19T08:22:22;8.93;;;8.07;;
4754;SDS011;2391;47.212;7.542;2022-08-19T08:25:18;9.93;;;8.30;;
4754;SDS011;2391;47.212;7.542;2022-08-19T08:27:43;11.30;;;8.63;;
4754;SDS011;2391;47.212;7.542;2022-08-19T08:30:10;11.00;;;9.10;;
4754;SDS011;2391;47.212;7.542;2022-08-19T08:32:40;9.80;;;7.93;;
4754;SDS011;2391;47.212;7.542;2022-08-19T08:35:06;10.70;;;8.30;;
4754;SDS011;2391;47.212;7.542;2022-08-19T08:37:34;11.00;;;8.27;;
4754;SDS011;2391;47.212;7.542;2022-08-19T08:40:09;9.80;;;7.77;;
4754;SDS011;2391;47.212;7.542;2022-08-19T08:42:34;9.97;;;8.97;;
4754;SDS011;2391;47.212;7.542;2022-08-19T08:45:04;11.97;;;8.07;;
4754;SDS011;2391;47.212;7.542;2022-08-19T08:47:34;8.03;;;7.23;;
4754;SDS011;2391;47.212;7.542;2022-08-19T08:50:06;8.70;;;7.10;;
4754;SDS011;2391;47.212;7.542;2022-08-19T08:52:42;10.27;;;8.20;;
4754;SDS011;2391;47.212;7.542;2022-08-19T08:55:19;8.97;;;7.43;;
4754;SDS011;2391;47.212;7.542;2022-08-19T09:02:53;10.33;;;7.80;;
4754;SDS011;2391;47.212;7.542;2022-08-19T09:05:22;11.60;;;7.30;;
4754;SDS011;2391;47.212;7.542;2022-08-19T09:08:04;11.43;;;7.57;;
4754;SDS011;2391;47.212;7.542;2022-08-19T09:10:37;11.47;;;7.90;;
4754;SDS011;2391;47.212;7.542;2022-08-19T09:15:51;8.60;;;7.47;;
4754;SDS011;2391;47.212;7.542;2022-08-19T09:18:38;7.67;;;7.00;;
4754;SDS011;2391;47.212;7.542;2022-08-19T09:20:57;7.20;;;6.60;;
4754;SDS011;2391;47.212;7.542;2022-08-19T09:23:24;8.83;;;7.13;;
4754;SDS011;2391;47.212;7.542;2022-08-19T09:25:51;7.10;;;6.40;;
4754;SDS011;2391;47.212;7.542;2022-08-19T09:28:16;9.20;;;7.23;;
4754;SDS011;2391;47.212;7.542;2022-08-19T09:30:43;10.33;;;7.53;;
4754;SDS011;2391;47.212;7.542;2022-08-19T09:33:09;7.47;;;6.20;;
4754;SDS011;2391;47.212;7.542;2022-08-19T09:38:15;6.70;;;6.10;;
4754;SDS011;2391;47.212;7.542;2022-08-19T09:40:41;7.07;;;6.13;;
4754;SDS011;2391;47.212;7.542;2022-08-19T09:43:07;7.77;;;6.30;;
4754;SDS011;2391;47.212;7.542;2022-08-19T09:45:35;7.30;;;5.83;;
4754;SDS011;2391;47.212;7.542;2022-08-19T09:48:01;12.80;;;7.73;;
4754;SDS011;2391;47.212;7.542;2022-08-19T09:50:28;8.87;;;7.97;;
4754;SDS011;2391;47.212;7.542;2022-08-19T10:07:50;6.67;;;6.03;;
4754;SDS011;2391;47.212;7.542;2022-08-19T10:10:16;6.77;;;6.17;;
4754;SDS011;2391;47.212;7.542;2022-08-19T10:12:43;7.30;;;6.70;;
4754;SDS011;2391;47.212;7.542;2022-08-19T10:15:21;7.93;;;7.13;;
4754;SDS011;2391;47.212;7.542;2022-08-19T10:20:37;6.90;;;6.30;;
4754;SDS011;2391;47.212;7.542;2022-08-19T10:22:57;8.20;;;7.40;;
4754;SDS011;2391;47.212;7.542;2022-08-19T10:25:24;8.60;;;7.80;;
4754;SDS011;2391;47.212;7.542;2022-08-19T10:27:52;9.00;;;8.00;;
4754;SDS011;2391;47.212;7.542;2022-08-19T10:30:18;8.97;;;8.03;;
4754;SDS011;2391;47.212;7.542;2022-08-19T10:32:45;9.53;;;8.53;;
4754;SDS011;2391;47.212;7.542;2022-08-19T10:35:11;9.23;;;8.30;;
4754;SDS011;2391;47.212;7.542;2022-08-19T10:37:38;8.07;;;7.27;;
4754;SDS011;2391;47.212;7.542;2022-08-19T10:40:05;8.00;;;7.17;;
4754;SDS011;2391;47.212;7.542;2022-08-19T10:42:33;8.03;;;7.17;;
4754;SDS011;2391;47.212;7.542;2022-08-19T10:45:00;14.10;;;8.37;;
4754;SDS011;2391;47.212;7.542;2022-08-19T10:47:26;11.17;;;8.47;;
4754;SDS011;2391;47.212;7.542;2022-08-19T10:49:53;9.83;;;8.50;;
4754;SDS011;2391;47.212;7.542;2022-08-19T10:52:43;8.73;;;7.80;;
4754;SDS011;2391;47.212;7.542;2022-08-19T11:13:48;7.60;;;6.90;;
4754;SDS011;2391;47.212;7.542;2022-08-19T11:16:16;7.73;;;6.90;;
4754;SDS011;2391;47.212;7.542;2022-08-19T11:18:45;9.57;;;8.07;;
4754;SDS011;2391;47.212;7.542;2022-08-19T11:21:18;9.30;;;8.40;;
4754;SDS011;2391;47.212;7.542;2022-08-19T11:23:48;10.73;;;9.00;;
4754;SDS011;2391;47.212;7.542;2022-08-19T11:26:16;9.53;;;8.53;;
4754;SDS011;2391;47.212;7.542;2022-08-19T11:28:43;9.30;;;8.33;;
4754;SDS011;2391;47.212;7.542;2022-08-19T11:31:13;11.60;;;9.97;;
4754;SDS011;2391;47.212;7.542;2022-08-19T11:43:45;12.53;;;9.50;;
4754;SDS011;2391;47.212;7.542;2022-08-19T11:46:13;17.10;;;10.33;;
4754;SDS011;2391;47.212;7.542;2022-08-19T11:48:40;11.13;;;10.03;;
4754;SDS011;2391;47.212;7.542;2022-08-19T11:51:10;11.70;;;10.10;;
4754;SDS011;2391;47.212;7.542;2022-08-19T11:53:38;12.97;;;10.43;;
4754;SDS011;2391;47.212;7.542;2022-08-19T11:56:05;13.00;;;10.77;;
4754;SDS011;2391;47.212;7.542;2022-08-19T11:58:32;12.17;;;10.10;;
4754;SDS011;2391;47.212;7.542;2022-08-19T12:00:59;13.20;;;11.00;;
4754;SDS011;2391;47.212;7.542;2022-08-19T12:03:26;11.90;;;10.60;;
4754;SDS011;2391;47.212;7.542;2022-08-19T12:05:53;14.23;;;11.83;;
4754;SDS011;2391;47.212;7.542;2022-08-19T12:08:18;17.77;;;12.73;;
4754;SDS011;2391;47.212;7.542;2022-08-19T12:10:45;14.53;;;11.77;;
4754;SDS011;2391;47.212;7.542;2022-08-19T12:13:12;13.77;;;11.40;;
4754;SDS011;2391;47.212;7.542;2022-08-19T12:15:40;14.77;;;12.20;;
4754;SDS011;2391;47.212;7.542;2022-08-19T12:18:07;17.17;;;11.37;;
4754;SDS011;2391;47.212;7.542;2022-08-19T12:20:39;12.93;;;11.20;;
4754;SDS011;2391;47.212;7.542;2022-08-19T12:23:03;13.33;;;11.33;;
4754;SDS011;2391;47.212;7.542;2022-08-19T12:25:33;12.93;;;10.87;;
4754;SDS011;2391;47.212;7.542;2022-08-19T12:27:59;12.30;;;11.00;;
4754;SDS011;2391;47.212;7.542;2022-08-19T12:30:26;15.10;;;11.20;;
4754;SDS011;2391;47.212;7.542;2022-08-19T12:32:52;17.50;;;12.30;;
4754;SDS011;2391;47.212;7.542;2022-08-19T12:35:19;13.53;;;11.10;;
4754;SDS011;2391;47.212;7.542;2022-08-19T12:37:46;16.73;;;13.40;;
4754;SDS011;2391;47.212;7.542;2022-08-19T12:40:13;17.23;;;13.33;;
4754;SDS011;2391;47.212;7.542;2022-08-19T12:42:40;15.40;;;13.00;;
4754;SDS011;2391;47.212;7.542;2022-08-19T12:45:11;15.80;;;11.70;;
4754;SDS011;2391;47.212;7.542;2022-08-19T12:47:37;16.90;;;12.97;;
4754;SDS011;2391;47.212;7.542;2022-08-19T12:50:04;14.93;;;12.30;;
4754;SDS011;2391;47.212;7.542;2022-08-19T12:52:35;20.20;;;12.83;;
4754;SDS011;2391;47.212;7.542;2022-08-19T12:55:06;17.90;;;13.03;;
4754;SDS011;2391;47.212;7.542;2022-08-19T12:57:32;14.03;;;11.97;;
4754;SDS011;2391;47.212;7.542;2022-08-19T13:00:05;16.27;;;12.70;;
4754;SDS011;2391;47.212;7.542;2022-08-19T13:02:35;17.63;;;13.67;;
4754;SDS011;2391;47.212;7.542;2022-08-19T13:05:02;15.70;;;13.40;;
4754;SDS011;2391;47.212;7.542;2022-08-19T13:07:29;17.33;;;14.23;;
4754;SDS011;2391;47.212;7.542;2022-08-19T13:09:56;16.17;;;12.60;;
4754;SDS011;2391;47.212;7.542;2022-08-19T13:12:22;16.87;;;13.70;;
4754;SDS011;2391;47.212;7.542;2022-08-19T13:14:50;16.80;;;14.30;;
4754;SDS011;2391;47.212;7.542;2022-08-19T13:17:17;17.57;;;13.97;;
4754;SDS011;2391;47.212;7.542;2022-08-19T13:19:43;17.67;;;13.63;;
4754;SDS011;2391;47.212;7.542;2022-08-19T13:22:09;15.03;;;13.43;;
4754;SDS011;2391;47.212;7.542;2022-08-19T13:24:35;20.70;;;14.43;;
4754;SDS011;2391;47.212;7.542;2022-08-19T13:27:02;14.17;;;12.40;;
4754;SDS011;2391;47.212;7.542;2022-08-19T13:29:28;17.60;;;13.50;;
4754;SDS011;2391;47.212;7.542;2022-08-19T13:32:12;22.43;;;14.27;;
4754;SDS011;2391;47.212;7.542;2022-08-19T13:34:56;17.10;;;14.03;;
4754;SDS011;2391;47.212;7.542;2022-08-19T13:37:22;17.00;;;13.63;;
4754;SDS011;2391;47.212;7.542;2022-08-19T13:39:50;17.80;;;14.53;;
4754;SDS011;2391;47.212;7.542;2022-08-19T13:42:17;18.33;;;14.00;;
4754;SDS011;2391;47.212;7.542;2022-08-19T13:44:44;19.57;;;14.30;;
4754;SDS011;2391;47.212;7.542;2022-08-19T13:47:09;18.93;;;15.10;;
4754;SDS011;2391;47.212;7.542;2022-08-19T13:49:37;23.57;;;15.20;;
4754;SDS011;2391;47.212;7.542;2022-08-19T13:52:04;18.70;;;14.60;;
4754;SDS011;2391;47.212;7.542;2022-08-19T13:54:30;19.63;;;14.90;;
4754;SDS011;2391;47.212;7.542;2022-08-19T13:56:56;17.40;;;15.00;;
4754;SDS011;2391;47.212;7.542;2022-08-19T13:59:22;18.03;;;14.23;;
4754;SDS011;2391;47.212;7.542;2022-08-19T14:01:48;17.53;;;14.63;;
4754;SDS011;2391;47.212;7.542;2022-08-19T14:04:14;18.97;;;15.10;;
4754;SDS011;2391;47.212;7.542;2022-08-19T14:06:40;18.33;;;15.00;;
4754;SDS011;2391;47.212;7.542;2022-08-19T14:09:05;22.77;;;15.87;;
4754;SDS011;2391;47.212;7.542;2022-08-19T14:11:32;18.70;;;15.73;;
4754;SDS011;2391;47.212;7.542;2022-08-19T14:13:58;19.90;;;16.70;;
4754;SDS011;2391;47.212;7.542;2022-08-19T14:16:24;21.00;;;16.27;;
4754;SDS011;2391;47.212;7.542;2022-08-19T14:18:52;24.13;;;17.50;;
4754;SDS011;2391;47.212;7.542;2022-08-19T14:21:22;25.10;;;15.97;;
4754;SDS011;2391;47.212;7.542;2022-08-19T14:23:50;22.43;;;17.30;;
4754;SDS011;2391;47.212;7.542;2022-08-19T14:26:17;18.50;;;14.93;;
4754;SDS011;2391;47.212;7.542;2022-08-19T14:28:44;20.00;;;15.63;;
4754;SDS011;2391;47.212;7.542;2022-08-19T14:31:11;18.33;;;14.67;;
4754;SDS011;2391;47.212;7.542;2022-08-19T14:33:38;17.77;;;13.97;;
4754;SDS011;2391;47.212;7.542;2022-08-19T14:36:05;23.73;;;14.13;;
4754;SDS011;2391;47.212;7.542;2022-08-19T14:38:32;19.63;;;13.40;;
4754;SDS011;2391;47.212;7.542;2022-08-19T14:41:11;18.27;;;14.10;;
4754;SDS011;2391;47.212;7.542;2022-08-19T14:43:46;16.53;;;13.30;;
4754;SDS011;2391;47.212;7.542;2022-08-19T14:46:17;16.40;;;13.73;;
4754;SDS011;2391;47.212;7.542;2022-08-19T14:48:46;16.20;;;13.27;;
4754;SDS011;2391;47.212;7.542;2022-08-19T14:51:12;17.10;;;14.20;;
4754;SDS011;2391;47.212;7.542;2022-08-19T14:53:39;16.37;;;13.70;;
4754;SDS011;2391;47.212;7.542;2022-08-19T14:56:09;17.37;;;14.47;;
4754;SDS011;2391;47.212;7.542;2022-08-19T14:58:38;17.63;;;14.30;;
4754;SDS011;2391;47.212;7.542;2022-08-19T15:01:06;16.70;;;13.43;;
4754;SDS011;2391;47.212;7.542;2022-08-19T15:03:32;17.43;;;14.00;;
4754;SDS011;2391;47.212;7.542;2022-08-19T15:05:59;18.10;;;14.47;;
4754;SDS011;2391;47.212;7.542;2022-08-19T15:08:28;22.90;;;14.47;;
4754;SDS011;2391;47.212;7.542;2022-08-19T15:10:56;19.27;;;14.33;;
4754;SDS011;2391;47.212;7.542;2022-08-19T15:13:23;23.50;;;15.73;;
4754;SDS011;2391;47.212;7.542;2022-08-19T15:15:50;22.80;;;15.50;;
4754;SDS011;2391;47.212;7.542;2022-08-19T15:18:17;19.27;;;15.33;;
4754;SDS011;2391;47.212;7.542;2022-08-19T15:20:43;20.50;;;15.10;;
4754;SDS011;2391;47.212;7.542;2022-08-19T15:23:09;19.87;;;14.87;;
4754;SDS011;2391;47.212;7.542;2022-08-19T15:25:36;22.83;;;15.30;;
4754;SDS011;2391;47.212;7.542;2022-08-19T15:28:02;23.73;;;15.20;;
4754;SDS011;2391;47.212;7.542;2022-08-19T15:30:28;18.40;;;15.17;;
4754;SDS011;2391;47.212;7.542;2022-08-19T15:32:55;17.40;;;14.57;;
4754;SDS011;2391;47.212;7.542;2022-08-19T15:35:23;17.80;;;14.47;;
4754;SDS011;2391;47.212;7.542;2022-08-19T15:37:50;15.80;;;13.53;;
4754;SDS011;2391;47.212;7.542;2022-08-19T15:40:17;15.27;;;13.67;;
4754;SDS011;2391;47.212;7.542;2022-08-19T15:42:44;16.10;;;13.23;;
4754;SDS011;2391;47.212;7.542;2022-08-19T15:45:11;16.87;;;14.17;;
4754;SDS011;2391;47.212;7.542;2022-08-19T15:47:38;18.53;;;14.80;;
4754;SDS011;2391;47.212;7.542;2022-08-19T15:50:06;17.23;;;13.70;;
4754;SDS011;2391;47.212;7.542;2022-08-19T15:52:34;17.47;;;13.60;;
4754;SDS011;2391;47.212;7.542;2022-08-19T15:55:00;19.70;;;14.00;;
4754;SDS011;2391;47.212;7.542;2022-08-19T15:57:27;18.50;;;14.77;;
4754;SDS011;2391;47.212;7.542;2022-08-19T15:59:55;19.00;;;13.27;;